PWSweather.com
Personal Weather Stations
Station Observations
IMAZOWIE6
WarszawaPL

WarszawaPL

Lat: 52.27957, Lon: 21.05489

Elevation: 100

Station Type: WS1080

http://stacjapogody.waw.pl/

Latest ConditionsUpdated 4:01:10 PM GMT+01:01 Monday, Oct 23, 2017
Currently Today's Max Today's Min Today's Average
Temperature 46.8°F8.2°C 48.7°F9.3°C 46.8°F8.2°C 47.8°F8.8°C
Dew Point 26.3°F-3.2°C 29.2°F-1.6°C 22.0°F-5.6°C 26.1°F-3.3°C
Winds Calm Calm 1.4 mph 2.3 kmh - 0.0 mph 0.0 kmh
Wind Gusts -- 2.8 mph4.5 kmh - -
Humidity 45% 47% 36% 43%
Pressure 29.56 in1001.0 mb 29.56 in1001.0 mb 29.46 in997.6 mb -
Hour Temp Dew Point Humidity Winds Wind Gusts Pressure Precip Precip Rate Daily Precip Total
04:01 PM 46.8°F8.2°C 26.3°F-3.2°C 45% Calm Calm -- 29.56 in1001.0 mb 0.00 in0.0 mm 0.00 in0.0 mm 0.11 in2.8 mm
03:46 PM 46.8°F8.2°C 26.3°F-3.2°C 45% Calm Calm -- 29.56 in1001.0 mb 0.00 in0.0 mm 0.00 in0.0 mm 0.11 in2.8 mm
03:31 PM 47.1°F8.4°C 26.7°F-2.9°C 45% Calm Calm -- 29.55 in1000.7 mb 0.00 in0.0 mm 0.00 in0.0 mm 0.11 in2.8 mm
03:16 PM 47.1°F8.4°C 27.2°F-2.7°C 46% Calm Calm -- 29.55 in1000.7 mb 0.00 in0.0 mm 0.00 in0.0 mm 0.11 in2.8 mm
03:01 PM 47.3°F8.5°C 27.4°F-2.6°C 46% Calm Calm -- 29.55 in1000.7 mb 0.00 in0.0 mm 0.00 in0.0 mm 0.11 in2.8 mm
02:46 PM 47.5°F8.6°C 27.5°F-2.5°C 46% Calm Calm -- 29.54 in1000.3 mb 0.00 in0.0 mm 0.00 in0.0 mm 0.11 in2.8 mm
02:31 PM 47.1°F8.4°C 27.2°F-2.7°C 46% Calm Calm 0.6 mph1.0 kmh 29.54 in1000.3 mb 0.00 in0.0 mm 0.00 in0.0 mm 0.11 in2.8 mm
02:16 PM 47.7°F8.7°C 27.7°F-2.4°C 46% Calm Calm -- 29.53 in1000.0 mb 0.00 in0.0 mm 0.00 in0.0 mm 0.11 in2.8 mm
02:01 PM 47.5°F8.6°C 27.5°F-2.5°C 46% Calm Calm -- 29.53 in1000.0 mb 0.00 in0.0 mm 0.00 in0.0 mm 0.11 in2.8 mm
01:46 PM 47.8°F8.8°C 27.9°F-2.3°C 46% Calm Calm -- 29.52 in999.7 mb 0.00 in0.0 mm 0.00 in0.0 mm 0.11 in2.8 mm
01:31 PM 47.8°F8.8°C 27.9°F-2.3°C 46% Calm Calm -- 29.52 in999.7 mb 0.00 in0.0 mm 0.00 in0.0 mm 0.11 in2.8 mm
01:16 PM 48.2°F9.0°C 28.2°F-2.1°C 46% Calm Calm -- 29.52 in999.7 mb 0.00 in0.0 mm 0.00 in0.0 mm 0.11 in2.8 mm
01:01 PM 48.4°F9.1°C 28.9°F-1.7°C 47% Calm Calm -- 29.52 in999.7 mb 0.00 in0.0 mm 0.00 in0.0 mm 0.11 in2.8 mm
12:46 PM 48.6°F9.2°C 28.5°F-1.9°C 46% Calm Calm -- 29.52 in999.7 mb 0.00 in0.0 mm 0.00 in0.0 mm 0.11 in2.8 mm
12:31 PM 48.6°F9.2°C 28.5°F-1.9°C 46% Calm Calm -- 29.52 in999.7 mb 0.00 in0.0 mm 0.00 in0.0 mm 0.11 in2.8 mm
12:16 PM 48.7°F9.3°C 29.2°F-1.6°C 47% Calm Calm -- 29.52 in999.7 mb 0.00 in0.0 mm 0.00 in0.0 mm 0.11 in2.8 mm
12:01 PM 48.6°F9.2°C 28.5°F-1.9°C 46% Calm Calm -- 29.52 in999.7 mb 0.00 in0.0 mm 0.00 in0.0 mm 0.11 in2.8 mm
11:46 AM 48.4°F9.1°C 28.4°F-2.0°C 46% Calm Calm -- 29.51 in999.3 mb 0.00 in0.0 mm 0.00 in0.0 mm 0.11 in2.8 mm
11:31 AM 48.0°F8.9°C 28.0°F-2.2°C 46% Calm Calm -- 29.51 in999.3 mb 0.00 in0.0 mm 0.00 in0.0 mm 0.11 in2.8 mm
11:16 AM 48.0°F8.9°C 28.0°F-2.2°C 46% Calm Calm -- 29.51 in999.3 mb 0.00 in0.0 mm 0.00 in0.0 mm 0.11 in2.8 mm
11:01 AM 47.8°F8.8°C 27.9°F-2.3°C 46% Calm Calm -- 29.51 in999.3 mb 0.00 in0.0 mm 0.00 in0.0 mm 0.11 in2.8 mm
10:46 AM 47.7°F8.7°C 27.7°F-2.4°C 46% Calm Calm -- 29.51 in999.3 mb 0.00 in0.0 mm 0.00 in0.0 mm 0.11 in2.8 mm
10:31 AM 47.7°F8.7°C 27.7°F-2.4°C 46% Calm Calm -- 29.51 in999.3 mb 0.00 in0.0 mm 0.00 in0.0 mm 0.11 in2.8 mm
10:16 AM 47.8°F8.8°C 27.9°F-2.3°C 46% Calm Calm 0.6 mph1.0 kmh 29.50 in999.0 mb 0.00 in0.0 mm 0.00 in0.0 mm 0.11 in2.8 mm
10:01 AM 47.8°F8.8°C 27.9°F-2.3°C 46% Calm Calm -- 29.50 in999.0 mb 0.01 in0.3 mm 0.00 in0.0 mm 0.11 in2.8 mm
09:46 AM 47.8°F8.8°C 27.9°F-2.3°C 46% Calm Calm 2.8 mph4.5 kmh 29.50 in999.0 mb 0.01 in0.3 mm 0.00 in0.0 mm 0.11 in2.8 mm
09:31 AM 48.0°F8.9°C 28.0°F-2.2°C 46% Calm Calm -- 29.49 in998.6 mb 0.01 in0.3 mm 0.00 in0.0 mm 0.11 in2.8 mm
09:16 AM 48.0°F8.9°C 27.5°F-2.5°C 45% Calm Calm -- 29.49 in998.6 mb 0.01 in0.3 mm 0.00 in0.0 mm 0.11 in2.8 mm
09:01 AM 48.0°F8.9°C 27.5°F-2.5°C 45% Calm Calm -- 29.49 in998.6 mb 0.01 in0.3 mm 0.00 in0.0 mm 0.11 in2.8 mm
08:46 AM 47.7°F8.7°C 27.2°F-2.7°C 45% Calm Calm -- 29.49 in998.6 mb 0.01 in0.3 mm 0.00 in0.0 mm 0.11 in2.8 mm
08:31 AM 47.8°F8.8°C 27.3°F-2.6°C 45% Calm Calm -- 29.49 in998.6 mb 0.01 in0.3 mm 0.00 in0.0 mm 0.11 in2.8 mm
08:16 AM 47.7°F8.7°C 27.2°F-2.7°C 45% Calm Calm -- 29.49 in998.6 mb 0.01 in0.3 mm 0.00 in0.0 mm 0.11 in2.8 mm
08:01 AM 47.5°F8.6°C 27.0°F-2.8°C 45% Calm Calm -- 29.49 in998.6 mb 0.04 in1.0 mm 0.00 in0.0 mm 0.11 in2.8 mm
07:46 AM 47.7°F8.7°C 26.6°F-3.0°C 44% Calm Calm -- 29.49 in998.6 mb 0.04 in1.0 mm 0.05 in1.3 mm 0.11 in2.8 mm
07:31 AM 47.3°F8.5°C 26.3°F-3.2°C 44% Calm Calm 0.6 mph1.0 kmh 29.48 in998.3 mb 0.02 in0.5 mm 0.05 in1.3 mm 0.10 in2.5 mm
07:16 AM 47.3°F8.5°C 26.3°F-3.2°C 44% Calm Calm -- 29.48 in998.3 mb 0.01 in0.3 mm 0.00 in0.0 mm 0.09 in2.3 mm
07:01 AM 47.7°F8.7°C 26.6°F-3.0°C 44% Calm Calm -- 29.48 in998.3 mb 0.01 in0.3 mm 0.02 in0.5 mm 0.09 in2.3 mm
06:46 AM 47.5°F8.6°C 25.9°F-3.4°C 43% Calm Calm 0.6 mph1.0 kmh 29.47 in998.0 mb 0.00 in0.0 mm 0.00 in0.0 mm 0.07 in1.8 mm
06:31 AM 47.5°F8.6°C 25.9°F-3.4°C 43% Calm Calm -- 29.47 in998.0 mb 0.00 in0.0 mm 0.00 in0.0 mm 0.07 in1.8 mm
06:16 AM 47.7°F8.7°C 26.1°F-3.3°C 43% Calm Calm 0.6 mph1.0 kmh 29.47 in998.0 mb 0.00 in0.0 mm 0.00 in0.0 mm 0.07 in1.8 mm
06:01 AM 47.7°F8.7°C 25.5°F-3.6°C 42% Calm Calm -- 29.46 in997.6 mb 0.01 in0.3 mm 0.00 in0.0 mm 0.07 in1.8 mm
05:46 AM 47.5°F8.6°C 25.3°F-3.7°C 42% Calm Calm -- 29.46 in997.6 mb 0.01 in0.3 mm 0.05 in1.3 mm 0.07 in1.8 mm
05:31 AM 47.8°F8.8°C 25.7°F-3.5°C 42% Calm Calm 1.4 mph2.3 kmh 29.46 in997.6 mb 0.00 in0.0 mm 0.00 in0.0 mm 0.06 in1.5 mm
05:16 AM 47.8°F8.8°C 25.1°F-3.8°C 41% Calm Calm 1.4 mph2.3 kmh 29.46 in997.6 mb 0.00 in0.0 mm 0.00 in0.0 mm 0.06 in1.5 mm
05:01 AM 47.8°F8.8°C 25.1°F-3.8°C 41% Calm Calm 1.4 mph2.3 kmh 29.46 in997.6 mb 0.02 in0.5 mm 0.00 in0.0 mm 0.06 in1.5 mm
04:46 AM 48.0°F8.9°C 25.2°F-3.8°C 41% Calm Calm 0.6 mph1.0 kmh 29.46 in997.6 mb 0.02 in0.5 mm 0.05 in1.3 mm 0.06 in1.5 mm
04:31 AM 47.8°F8.8°C 24.5°F-4.2°C 40% Calm Calm -- 29.47 in998.0 mb 0.01 in0.3 mm 0.00 in0.0 mm 0.05 in1.3 mm
04:16 AM 48.0°F8.9°C 24.6°F-4.1°C 40% Calm Calm -- 29.47 in998.0 mb 0.01 in0.3 mm 0.00 in0.0 mm 0.05 in1.3 mm
04:01 AM 47.8°F8.8°C 24.5°F-4.2°C 40% Calm Calm 0.6 mph1.0 kmh 29.47 in998.0 mb 0.05 in1.3 mm 0.02 in0.5 mm 0.05 in1.3 mm
03:46 AM 47.8°F8.8°C 24.5°F-4.2°C 40% Calm Calm 0.6 mph1.0 kmh 29.47 in998.0 mb 0.04 in1.0 mm 0.05 in1.3 mm 0.04 in1.0 mm
03:31 AM 47.8°F8.8°C 23.9°F-4.5°C 39% Calm Calm 1.4 mph2.3 kmh 29.47 in998.0 mb 0.02 in0.5 mm 0.05 in1.3 mm 0.02 in0.5 mm
03:16 AM 47.8°F8.8°C 23.9°F-4.5°C 39% Calm Calm 1.4 mph2.3 kmh 29.47 in998.0 mb 0.01 in0.3 mm 0.05 in1.3 mm 0.01 in0.3 mm
03:01 AM 48.0°F8.9°C 24.0°F-4.4°C 39% Calm Calm -- 29.48 in998.3 mb 0.00 in0.0 mm 0.00 in0.0 mm 0.00 in0.0 mm
02:46 AM 48.0°F8.9°C 23.4°F-4.8°C 38% Calm Calm -- 29.47 in998.0 mb 0.00 in0.0 mm 0.00 in0.0 mm 0.00 in0.0 mm
02:31 AM 48.0°F8.9°C 23.4°F-4.8°C 38% Calm Calm -- 29.48 in998.3 mb 0.00 in0.0 mm 0.00 in0.0 mm 0.00 in0.0 mm
02:16 AM 48.2°F9.0°C 23.6°F-4.7°C 38% Calm Calm 0.6 mph1.0 kmh 29.47 in998.0 mb 0.00 in0.0 mm 0.00 in0.0 mm 0.00 in0.0 mm
02:01 AM 48.2°F9.0°C 23.6°F-4.7°C 38% Calm Calm 1.4 mph2.3 kmh 29.47 in998.0 mb 0.00 in0.0 mm 0.00 in0.0 mm 0.00 in0.0 mm
01:46 AM 48.0°F8.9°C 23.4°F-4.8°C 38% Calm Calm 2.0 mph3.2 kmh 29.48 in998.3 mb 0.00 in0.0 mm 0.00 in0.0 mm 0.00 in0.0 mm
01:31 AM 48.0°F8.9°C 23.4°F-4.8°C 38% Calm Calm 1.4 mph2.3 kmh 29.48 in998.3 mb 0.00 in0.0 mm 0.00 in0.0 mm 0.00 in0.0 mm
01:16 AM 48.0°F8.9°C 23.4°F-4.8°C 38% Calm Calm 2.0 mph3.2 kmh 29.49 in998.6 mb 0.00 in0.0 mm 0.00 in0.0 mm 0.00 in0.0 mm
01:01 AM 48.0°F8.9°C 23.4°F-4.8°C 38% 1.4 mph N2.3 kmh N 2.8 mph4.5 kmh 29.49 in998.6 mb 0.00 in0.0 mm 0.00 in0.0 mm 0.00 in0.0 mm
12:46 AM 48.0°F8.9°C 22.8°F-5.1°C 37% Calm Calm 1.4 mph2.3 kmh 29.49 in998.6 mb 0.00 in0.0 mm 0.00 in0.0 mm 0.00 in0.0 mm
12:31 AM 47.8°F8.8°C 22.6°F-5.2°C 37% Calm Calm 1.4 mph2.3 kmh 29.50 in999.0 mb 0.00 in0.0 mm 0.00 in0.0 mm 0.00 in0.0 mm
12:16 AM 47.8°F8.8°C 22.6°F-5.2°C 37% Calm Calm 2.0 mph3.2 kmh 29.50 in999.0 mb 0.00 in0.0 mm 0.00 in0.0 mm 0.00 in0.0 mm
12:01 AM 47.8°F8.8°C 22.0°F-5.6°C 36% 0.6 mph N1.0 kmh N 2.0 mph3.2 kmh 29.51 in999.3 mb 0.00 in0.0 mm 0.00 in0.0 mm 0.00 in0.0 mm